createdAt,value
2018-06-11T00:01:03.539Z,100674.28
2018-06-11T00:03:08.271Z,100673.31
2018-06-11T00:05:12.955Z,100674.61
2018-06-11T00:07:17.706Z,100678.65
2018-06-11T00:09:22.537Z,100683.82
2018-06-11T00:11:27.165Z,100677.20
2018-06-11T00:13:32.070Z,100682.47
2018-06-11T00:15:36.742Z,100683.34
2018-06-11T00:17:41.374Z,100681.72
2018-06-11T00:19:46.053Z,100685.38
2018-06-11T00:21:50.700Z,100678.02
2018-06-11T00:23:55.391Z,100679.99
2018-06-11T00:26:00.067Z,100671.29
2018-06-11T00:28:05.267Z,100673.88
2018-06-11T00:30:10.607Z,100673.73
2018-06-11T00:32:15.333Z,100677.87
2018-06-11T00:34:19.985Z,100677.34
2018-06-11T00:36:24.599Z,100653.34
2018-06-11T00:38:29.621Z,100673.85
2018-06-11T00:40:34.304Z,100676.70
2018-06-11T00:42:39.005Z,100675.59
2018-06-11T00:44:43.885Z,100676.92
2018-06-11T00:46:48.481Z,100673.38
2018-06-11T00:48:53.245Z,100674.39
2018-06-11T00:50:58.014Z,100670.39
2018-06-11T00:53:02.665Z,100674.08
2018-06-11T00:55:07.330Z,100671.29
2018-06-11T00:57:12.098Z,100663.91
2018-06-11T00:59:16.726Z,100664.27
2018-06-11T01:01:21.367Z,100662.55
2018-06-11T01:03:26.136Z,100652.78
2018-06-11T01:05:30.836Z,100648.47
2018-06-11T01:07:35.650Z,100661.88
2018-06-11T01:09:40.299Z,100613.81
2018-06-11T01:11:44.973Z,100646.30
2018-06-11T01:13:49.595Z,100645.34
2018-06-11T01:15:54.314Z,100638.75
2018-06-11T01:17:59.009Z,100635.85
2018-06-11T01:20:03.819Z,100633.47
2018-06-11T01:22:08.546Z,100636.52
2018-06-11T01:24:13.226Z,100639.02
2018-06-11T01:26:17.914Z,100638.77
2018-06-11T01:28:22.605Z,100640.13
2018-06-11T01:30:27.245Z,100641.82
2018-06-11T01:32:31.970Z,100636.16
2018-06-11T01:34:36.703Z,100643.38
2018-06-11T01:36:41.449Z,100638.11
2018-06-11T01:38:46.089Z,100634.65
2018-06-11T01:40:50.460Z,100638.66
2018-06-11T01:42:55.253Z,100634.86
2018-06-11T01:44:59.877Z,100637.36
2018-06-11T01:47:04.590Z,100643.84
2018-06-11T01:49:09.311Z,100639.23
2018-06-11T01:51:14.003Z,100597.97
2018-06-11T01:53:18.706Z,100628.20
2018-06-11T01:55:23.182Z,100611.73
2018-06-11T01:57:28.038Z,100626.97
2018-06-11T01:59:32.936Z,100618.81
2018-06-11T02:01:37.556Z,100617.33
2018-06-11T02:03:42.232Z,100614.52
2018-06-11T02:05:46.928Z,100608.98
2018-06-11T02:07:51.578Z,100603.51
2018-06-11T02:09:56.331Z,100600.47
2018-06-11T02:12:00.672Z,100600.11
2018-06-11T02:14:05.457Z,100592.61
2018-06-11T02:16:10.319Z,100591.67
2018-06-11T02:18:15.043Z,100599.16
2018-06-11T02:20:19.768Z,100600.19
2018-06-11T02:22:24.185Z,100595.47
2018-06-11T02:24:28.817Z,100601.77
2018-06-11T02:26:33.494Z,100601.33
2018-06-11T02:28:38.118Z,100605.85
2018-06-11T02:30:42.836Z,100606.69
2018-06-11T02:32:47.503Z,100601.41
2018-06-11T02:34:52.113Z,100600.86
2018-06-11T02:36:56.750Z,100595.89
2018-06-11T02:39:01.360Z,100584.45
2018-06-11T02:41:06.093Z,100597.27
2018-06-11T02:43:10.794Z,100591.70
2018-06-11T02:45:15.517Z,100597.41
2018-06-11T02:47:20.141Z,100595.84
2018-06-11T02:49:24.525Z,100600.45
2018-06-11T02:51:29.174Z,100594.06
2018-06-11T02:53:33.827Z,100581.45
2018-06-11T02:55:38.528Z,100576.09
2018-06-11T02:57:43.221Z,100604.09
2018-06-11T02:59:47.997Z,100599.58
2018-06-11T03:01:52.721Z,100599.78
2018-06-11T03:03:57.334Z,100603.00
2018-06-11T03:06:02.006Z,100597.77
2018-06-11T03:08:06.725Z,100604.99
2018-06-11T03:10:11.367Z,100601.44
2018-06-11T03:12:16.061Z,100609.42
2018-06-11T03:14:20.749Z,100602.01
2018-06-11T03:16:25.439Z,100604.41
2018-06-11T03:18:30.166Z,100603.57
2018-06-11T03:20:34.973Z,100595.85
2018-06-11T03:22:39.662Z,100588.41
2018-06-11T03:24:44.350Z,100584.80
2018-06-11T03:26:49.095Z,100582.25
2018-06-11T03:28:53.779Z,100588.41
2018-06-11T03:30:58.393Z,100585.37
2018-06-11T03:33:03.085Z,100593.50
2018-06-11T03:35:07.797Z,100587.91
2018-06-11T03:37:12.733Z,100588.33
2018-06-11T03:39:17.451Z,100586.31
2018-06-11T03:41:22.229Z,100588.75
2018-06-11T03:43:26.858Z,100580.16
2018-06-11T03:45:31.652Z,100585.30
2018-06-11T03:47:36.269Z,100587.08
2018-06-11T03:49:40.971Z,100585.17
2018-06-11T03:51:45.662Z,100586.28
2018-06-11T03:53:50.390Z,100586.20
2018-06-11T03:55:55.165Z,100594.70
2018-06-11T03:57:59.991Z,100596.34
2018-06-11T04:00:04.773Z,100596.42
2018-06-11T04:02:09.515Z,100596.19
2018-06-11T04:04:14.249Z,100591.97
2018-06-11T04:06:18.927Z,100593.50
2018-06-11T04:08:23.579Z,100597.83
2018-06-11T04:10:28.251Z,100595.97
2018-06-11T04:12:32.934Z,100587.42
2018-06-11T04:14:37.581Z,100586.84
2018-06-11T04:16:42.295Z,100573.89
2018-06-11T04:18:46.944Z,100528.23
2018-06-11T04:20:51.639Z,100594.26
2018-06-11T04:22:56.401Z,100597.63
2018-06-11T04:25:00.986Z,100599.66
2018-06-11T04:27:05.625Z,100594.71
2018-06-11T04:29:10.391Z,100593.77
2018-06-11T04:31:15.222Z,100597.41
2018-06-11T04:33:19.875Z,100595.36
2018-06-11T04:35:24.530Z,100553.88
2018-06-11T04:37:29.173Z,100592.40
2018-06-11T04:39:33.844Z,100586.73
2018-06-11T04:41:38.599Z,100584.42
2018-06-11T04:43:43.236Z,100574.58
2018-06-11T04:45:47.885Z,100595.63
2018-06-11T04:47:52.559Z,100594.60
2018-06-11T04:49:57.318Z,100600.27
2018-06-11T04:52:02.150Z,100600.34
2018-06-11T04:54:06.992Z,100593.01
2018-06-11T04:56:11.833Z,100602.13
2018-06-11T04:58:16.588Z,100600.26
2018-06-11T05:00:21.342Z,100599.72
2018-06-11T05:02:26.192Z,100600.94
2018-06-11T05:04:30.934Z,100602.23
2018-06-11T05:06:35.831Z,100553.59
2018-06-11T05:08:40.504Z,100607.83
2018-06-11T05:10:45.183Z,100613.53
2018-06-11T05:12:50.072Z,100617.16
2018-06-11T05:14:54.946Z,100623.00
2018-06-11T05:16:59.740Z,100622.23
2018-06-11T05:19:04.486Z,100622.37
2018-06-11T05:21:09.219Z,100605.84
2018-06-11T05:23:14.168Z,100615.81
2018-06-11T05:25:18.966Z,100618.82
2018-06-11T05:27:23.675Z,100618.23
2018-06-11T05:29:28.468Z,100602.31
2018-06-11T05:31:33.250Z,100620.85
2018-06-11T05:33:38.189Z,100630.17
2018-06-11T05:35:43.453Z,100635.06
2018-06-11T05:37:48.167Z,100630.92
2018-06-11T05:39:52.899Z,100635.91
2018-06-11T05:41:57.843Z,100632.75
2018-06-11T05:44:02.673Z,100624.92
2018-06-11T05:46:07.418Z,100629.26
2018-06-11T05:48:12.091Z,100629.92
2018-06-11T05:50:16.994Z,100630.25
2018-06-11T05:52:21.652Z,100629.86
2018-06-11T05:54:26.350Z,100638.98
2018-06-11T05:56:31.088Z,100643.71
2018-06-11T05:58:36.377Z,100630.88
2018-06-11T06:00:41.155Z,100634.56
2018-06-11T06:02:46.109Z,100642.27
2018-06-11T06:04:51.130Z,100639.73
2018-06-11T06:06:55.995Z,100640.22
2018-06-11T06:09:00.800Z,100644.59
2018-06-11T06:11:05.483Z,100637.88
2018-06-11T06:13:10.308Z,100627.86
2018-06-11T06:15:15.159Z,100639.95
2018-06-11T06:17:19.943Z,100641.06
2018-06-11T06:19:24.690Z,100641.66
2018-06-11T06:21:29.495Z,100643.88
2018-06-11T06:23:34.258Z,100636.98
2018-06-11T06:25:39.246Z,100641.01
2018-06-11T06:27:43.970Z,100641.78
2018-06-11T06:29:48.703Z,100637.66
2018-06-11T06:31:53.440Z,100636.78
2018-06-11T06:33:58.226Z,100602.44
2018-06-11T06:36:03.040Z,100628.48
2018-06-11T06:38:07.887Z,100624.95
2018-06-11T06:40:13.001Z,100626.45
2018-06-11T06:42:17.705Z,100622.12
2018-06-11T06:44:22.505Z,100629.47
2018-06-11T06:46:27.243Z,100627.13
2018-06-11T06:48:31.977Z,100630.64
2018-06-11T06:50:36.695Z,100631.62
2018-06-11T06:52:41.378Z,100633.06
2018-06-11T06:54:46.047Z,100632.32
2018-06-11T06:56:50.677Z,100642.06
2018-06-11T06:58:55.473Z,100651.19
2018-06-11T07:01:00.226Z,100646.19
2018-06-11T07:03:05.038Z,100648.48
2018-06-11T07:05:09.925Z,100641.69
2018-06-11T07:07:14.724Z,100643.87
2018-06-11T07:09:19.466Z,100641.84
2018-06-11T07:11:24.175Z,100646.56
2018-06-11T07:13:29.105Z,100646.27
2018-06-11T07:15:33.899Z,100650.34
2018-06-11T07:17:38.891Z,100650.52
2018-06-11T07:19:43.718Z,100645.36
2018-06-11T07:21:49.087Z,100641.77
2018-06-11T07:23:53.959Z,100644.95
2018-06-11T07:25:58.799Z,100625.11
2018-06-11T07:28:03.497Z,100648.53
2018-06-11T07:30:08.217Z,100642.73
2018-06-11T07:32:13.000Z,100643.55
2018-06-11T07:34:18.750Z,100650.31
2018-06-11T07:36:23.604Z,100640.95
2018-06-11T07:38:28.676Z,100639.28
2018-06-11T07:40:34.014Z,100641.42
2018-06-11T07:42:38.927Z,100634.47
2018-06-11T07:44:43.757Z,100643.68
2018-06-11T07:46:48.579Z,100649.62
2018-06-11T07:48:53.594Z,100565.94
2018-06-11T07:50:58.598Z,100636.30
2018-06-11T07:53:03.515Z,100631.10
2018-06-11T07:55:08.421Z,100633.88
2018-06-11T07:57:13.125Z,100645.23
2018-06-11T07:59:17.734Z,100618.64
2018-06-11T08:01:22.532Z,100639.12
2018-06-11T08:03:27.315Z,100640.97
2018-06-11T08:05:32.088Z,100634.34
2018-06-11T08:07:36.927Z,100643.67
2018-06-11T08:09:41.740Z,100641.61
2018-06-11T08:11:46.544Z,100636.70
2018-06-11T08:13:51.254Z,100636.39
2018-06-11T08:15:56.019Z,100633.41
2018-06-11T08:18:00.758Z,100630.87
2018-06-11T08:20:05.762Z,100616.42
2018-06-11T08:22:10.589Z,100614.05
2018-06-11T08:24:15.461Z,100612.11
2018-06-11T08:26:20.460Z,100610.92
2018-06-11T08:28:25.094Z,100602.86
2018-06-11T08:30:29.877Z,100608.77
2018-06-11T08:32:34.545Z,100607.42
2018-06-11T08:34:39.318Z,100560.75
2018-06-11T08:36:44.058Z,100603.08
2018-06-11T08:38:48.911Z,100607.81
2018-06-11T08:40:53.607Z,100617.48
2018-06-11T08:42:58.295Z,100622.70
2018-06-11T08:45:03.189Z,100626.92
2018-06-11T08:47:07.904Z,100618.64
2018-06-11T08:49:12.629Z,100603.28
2018-06-11T08:51:17.805Z,100617.80
2018-06-11T08:53:22.525Z,100616.10
2018-06-11T08:55:27.294Z,100619.81
2018-06-11T08:57:32.000Z,100617.08
2018-06-11T08:59:36.715Z,100594.56
2018-06-11T09:01:41.371Z,100514.00
2018-06-11T09:03:46.162Z,100574.55
2018-06-11T09:05:50.862Z,100618.12
2018-06-11T09:07:55.770Z,100620.36
2018-06-11T09:10:00.674Z,100630.34
2018-06-11T09:12:05.555Z,100629.79
2018-06-11T09:14:10.365Z,100631.55
2018-06-11T09:16:15.370Z,100631.12
2018-06-11T09:18:20.426Z,100625.50
2018-06-11T09:20:25.360Z,100621.66
2018-06-11T09:22:30.241Z,100642.59
2018-06-11T09:24:35.118Z,100646.64
2018-06-11T09:26:40.016Z,100652.92
2018-06-11T09:28:44.772Z,100649.48
2018-06-11T09:30:49.574Z,100661.02
2018-06-11T09:32:54.489Z,100658.01
2018-06-11T09:34:59.364Z,100620.47
2018-06-11T09:37:04.104Z,100635.88
2018-06-11T09:39:09.900Z,100635.77
2018-06-11T09:41:15.018Z,100629.72
2018-06-11T09:43:19.914Z,100630.77
2018-06-11T09:45:24.748Z,100631.70
2018-06-11T09:47:29.475Z,100625.14
2018-06-11T09:49:34.143Z,100630.84
2018-06-11T09:51:39.008Z,100626.95
2018-06-11T09:53:43.927Z,100628.17
2018-06-11T09:55:48.945Z,100630.39
2018-06-11T09:57:53.792Z,100634.89
2018-06-11T09:59:58.857Z,100636.94
2018-06-11T10:02:03.894Z,100630.81
2018-06-11T10:04:08.719Z,100626.04
2018-06-11T10:06:13.713Z,100627.10
2018-06-11T10:08:18.885Z,100628.06
2018-06-11T10:10:23.672Z,100623.45
2018-06-11T10:12:28.578Z,100619.14
2018-06-11T10:14:33.408Z,100611.77
2018-06-11T10:16:38.364Z,100622.23
2018-06-11T10:18:43.185Z,100618.33
2018-06-11T10:20:47.988Z,100613.58
2018-06-11T10:22:52.898Z,100603.71
2018-06-11T10:24:58.146Z,100629.34
2018-06-11T10:27:02.824Z,100595.90
2018-06-11T10:29:07.637Z,100591.11
2018-06-11T10:31:13.397Z,100628.09
2018-06-11T10:33:18.144Z,100635.48
2018-06-11T10:35:22.811Z,100628.49
2018-06-11T10:37:27.642Z,100635.45
2018-06-11T10:39:32.372Z,100630.67
2018-06-11T10:41:37.175Z,100623.73
2018-06-11T10:43:42.048Z,100631.08
2018-06-11T10:45:46.764Z,100627.18
2018-06-11T10:47:52.186Z,100621.56
2018-06-11T10:49:57.325Z,100615.47
2018-06-11T10:52:02.433Z,100618.52
2018-06-11T10:54:07.518Z,100626.34
2018-06-11T10:56:12.267Z,100579.83
2018-06-11T10:58:17.072Z,100616.34
2018-06-11T11:00:21.801Z,100584.17
2018-06-11T11:02:26.722Z,100584.62
2018-06-11T11:04:31.461Z,100535.49
2018-06-11T11:06:36.292Z,100595.05
2018-06-11T11:08:41.159Z,100589.87
2018-06-11T11:10:46.060Z,100592.91
2018-06-11T11:12:50.832Z,100592.01
2018-06-11T11:14:55.812Z,100578.53
2018-06-11T11:17:00.591Z,100575.94
2018-06-11T11:19:05.514Z,100587.69
2018-06-11T11:21:10.280Z,100589.40
2018-06-11T11:23:15.011Z,100578.11
2018-06-11T11:25:19.934Z,100582.91
2018-06-11T11:27:24.712Z,100558.53
2018-06-11T11:29:29.457Z,100582.91
2018-06-11T11:31:34.249Z,100577.25
2018-06-11T11:33:39.291Z,100575.48
2018-06-11T11:35:44.022Z,100567.64
2018-06-11T11:37:49.134Z,100533.73
2018-06-11T11:39:53.889Z,100576.77
2018-06-11T11:41:58.743Z,100573.72
2018-06-11T11:44:03.625Z,100565.89
2018-06-11T11:46:08.454Z,100564.14
2018-06-11T11:48:13.594Z,100557.18
2018-06-11T11:50:18.623Z,100552.84
2018-06-11T11:52:23.757Z,100545.42
2018-06-11T11:54:29.048Z,100537.59
2018-06-11T11:56:34.226Z,100531.09
2018-06-11T11:58:39.181Z,100534.14
2018-06-11T12:00:44.142Z,100534.12
2018-06-11T12:02:49.039Z,100529.75
2018-06-11T12:04:53.847Z,100526.67
2018-06-11T12:06:58.641Z,100528.78
2018-06-11T12:09:03.508Z,100522.73
2018-06-11T12:11:08.440Z,100524.13
2018-06-11T12:13:13.154Z,100521.98
2018-06-11T12:15:17.876Z,100522.84
2018-06-11T12:17:22.944Z,100533.75
2018-06-11T12:19:27.797Z,100525.48
2018-06-11T12:21:32.539Z,100513.66
2018-06-11T12:23:37.515Z,100521.09
2018-06-11T12:25:42.346Z,100464.98
2018-06-11T12:27:47.614Z,100525.34
2018-06-11T12:29:52.452Z,100530.14
2018-06-11T12:31:57.722Z,100521.40
2018-06-11T12:34:02.517Z,100528.03
2018-06-11T12:36:07.638Z,100506.27
2018-06-11T12:38:12.438Z,100514.92
2018-06-11T12:40:17.201Z,100513.20
2018-06-11T12:42:22.114Z,100507.14
2018-06-11T12:44:27.114Z,100507.17
2018-06-11T12:46:32.000Z,100492.39
2018-06-11T12:48:36.796Z,100485.02
2018-06-11T12:50:41.740Z,100481.55
2018-06-11T12:52:46.739Z,100486.28
2018-06-11T12:54:51.540Z,100476.74
2018-06-11T12:56:56.342Z,100476.23
2018-06-11T12:59:01.246Z,100460.05
2018-06-11T13:01:06.055Z,100445.73
2018-06-11T13:03:11.061Z,100459.04
2018-06-11T13:05:16.008Z,100464.59
2018-06-11T13:07:20.990Z,100453.31
2018-06-11T13:09:25.987Z,100444.53
2018-06-11T13:11:30.817Z,100437.92
2018-06-11T13:13:35.610Z,100449.53
2018-06-11T13:15:40.381Z,100455.47
2018-06-11T13:17:45.245Z,100465.08
2018-06-11T13:19:50.635Z,100472.20
2018-06-11T13:21:55.598Z,100451.98
2018-06-11T13:24:00.576Z,100461.13
2018-06-11T13:26:05.424Z,100460.63
2018-06-11T13:28:10.176Z,100462.74
2018-06-11T13:30:14.845Z,100456.09
2018-06-11T13:32:19.545Z,100456.91
2018-06-11T13:34:24.346Z,100455.91
2018-06-11T13:36:29.112Z,100451.81
2018-06-11T13:38:33.932Z,100447.98
2018-06-11T13:40:38.656Z,100443.77
2018-06-11T13:42:43.509Z,100440.78
2018-06-11T13:44:48.282Z,100442.97
2018-06-11T13:46:53.425Z,100442.94
2018-06-11T13:48:58.197Z,100441.52
2018-06-11T13:51:03.036Z,100440.70
2018-06-11T13:53:07.914Z,100441.67
2018-06-11T13:55:12.651Z,100440.40
2018-06-11T13:57:17.361Z,100443.78
2018-06-11T13:59:22.087Z,100436.64
2018-06-11T14:01:26.882Z,100439.52
2018-06-11T14:03:31.683Z,100451.67
2018-06-11T14:05:36.656Z,100445.47
2018-06-11T14:07:41.412Z,100450.87
2018-06-11T14:09:46.201Z,100451.34
2018-06-11T14:11:50.955Z,100459.06
2018-06-11T14:13:56.751Z,100461.73
2018-06-11T14:16:01.668Z,100454.16
2018-06-11T14:18:06.766Z,100423.23
2018-06-11T14:20:11.517Z,100444.45
2018-06-11T14:22:16.435Z,100441.64
2018-06-11T14:24:21.251Z,100446.26
2018-06-11T14:26:26.021Z,100445.03
2018-06-11T14:28:30.807Z,100435.77
2018-06-11T14:30:35.597Z,100440.70
2018-06-11T14:34:52.783Z,100442.62
2018-06-11T14:36:59.154Z,100436.55
2018-06-11T14:39:07.243Z,100436.95
2018-06-11T14:41:13.189Z,100434.80
2018-06-11T14:43:18.915Z,100389.25
2018-06-11T14:45:25.280Z,100427.63
2018-06-11T14:47:32.489Z,100427.56
2018-06-11T14:49:39.127Z,100442.02
2018-06-11T14:51:45.558Z,100442.62
2018-06-11T14:53:51.901Z,100446.34
2018-06-11T14:56:02.007Z,100431.95
2018-06-11T14:58:08.768Z,100443.20
2018-06-11T15:00:15.310Z,100430.01
2018-06-11T15:02:23.142Z,100430.44
2018-06-11T15:04:28.815Z,100432.38
2018-06-11T15:06:35.108Z,100433.72
2018-06-11T15:08:41.290Z,100430.19
2018-06-11T15:10:47.558Z,100425.73
2018-06-11T15:12:54.143Z,100417.49
2018-06-11T15:15:00.978Z,100415.38
2018-06-11T15:17:08.190Z,100407.98
2018-06-11T15:19:14.065Z,100424.48
2018-06-11T15:21:19.429Z,100427.16
2018-06-11T15:23:25.366Z,100429.45
2018-06-11T15:25:31.936Z,100427.27
2018-06-11T15:27:38.090Z,100388.58
2018-06-11T15:29:44.254Z,100429.83
2018-06-11T15:31:50.327Z,100430.20
2018-06-11T15:33:56.067Z,100429.30
2018-06-11T15:36:01.881Z,100432.45
2018-06-11T15:38:08.149Z,100426.91
2018-06-11T15:40:13.892Z,100426.53
2018-06-11T15:42:20.544Z,100417.36
2018-06-11T15:44:26.830Z,100425.08
2018-06-11T15:46:32.785Z,100421.59
2018-06-11T15:48:38.859Z,100420.28
2018-06-11T15:50:49.744Z,100413.37
2018-06-11T15:52:55.292Z,100410.75
2018-06-11T15:55:01.186Z,100403.02
2018-06-11T15:57:07.954Z,100405.59
2018-06-11T15:59:23.199Z,100402.69
2018-06-11T16:01:32.814Z,100372.78
2018-06-11T16:03:46.638Z,100389.64
2018-06-11T16:05:51.913Z,100393.14
2018-06-11T16:07:57.562Z,100389.22
2018-06-11T16:10:04.503Z,100385.36
2018-06-11T16:12:12.276Z,100386.64
2018-06-11T16:14:21.507Z,100385.33
2018-06-11T16:16:32.065Z,100384.91
2018-06-11T16:18:38.060Z,100389.74
2018-06-11T16:20:44.150Z,100392.83
2018-06-11T16:22:49.732Z,100384.97
2018-06-11T16:24:56.784Z,100383.22
2018-06-11T16:27:05.545Z,100381.06
2018-06-11T16:29:13.036Z,100381.03
2018-06-11T16:31:19.248Z,100384.11
2018-06-11T16:33:26.609Z,100382.81
2018-06-11T16:35:32.709Z,100385.38
2018-06-11T16:37:45.337Z,100322.06
2018-06-11T16:39:51.151Z,100394.11
2018-06-11T16:41:58.351Z,100395.03
2018-06-11T16:44:05.018Z,100395.41
2018-06-11T16:46:11.936Z,100394.11
2018-06-11T16:48:17.933Z,100393.27
2018-06-11T16:50:24.882Z,100389.81
2018-06-11T16:52:30.971Z,100385.44
2018-06-11T16:54:38.499Z,100378.48
2018-06-11T16:56:44.338Z,100387.17
2018-06-11T16:58:51.986Z,100393.70
2018-06-11T17:00:58.639Z,100360.27
2018-06-11T17:03:05.843Z,100401.56
2018-06-11T17:05:11.691Z,100389.40
2018-06-11T17:07:17.683Z,100404.19
2018-06-11T17:09:24.545Z,100406.36
2018-06-11T17:11:31.255Z,100404.60
2018-06-11T17:13:39.069Z,100408.06
2018-06-11T17:15:46.688Z,100361.68
2018-06-11T17:17:54.372Z,100408.99
2018-06-11T17:20:00.406Z,100408.95
2018-06-11T17:22:06.230Z,100397.70
2018-06-11T17:24:11.778Z,100412.50
2018-06-11T17:26:17.128Z,100416.44
2018-06-11T17:28:23.467Z,100411.21
2018-06-11T17:30:29.660Z,100383.39
2018-06-11T17:32:35.476Z,100414.64
2018-06-11T17:34:41.977Z,100382.55
2018-06-11T17:36:48.165Z,100412.46
2018-06-11T17:38:54.840Z,100406.84
2018-06-11T17:41:00.877Z,100400.30
2018-06-11T17:43:08.286Z,100399.44
2018-06-11T17:45:14.264Z,100398.16
2018-06-11T17:47:20.971Z,100399.03
2018-06-11T17:49:28.168Z,100398.59
2018-06-11T17:51:34.277Z,100401.65
2018-06-11T17:53:40.412Z,100399.91
2018-06-11T17:55:46.511Z,100396.41
2018-06-11T17:57:52.043Z,100402.11
2018-06-11T17:59:57.642Z,100396.02
2018-06-11T18:02:04.122Z,100395.99
2018-06-11T18:04:11.204Z,100401.19
2018-06-11T18:06:16.691Z,100407.70
2018-06-11T18:08:30.358Z,100411.20
2018-06-11T18:10:36.245Z,100400.75
2018-06-11T18:12:41.916Z,100404.66
2018-06-11T18:14:48.924Z,100405.09
2018-06-11T18:16:54.955Z,100390.31
2018-06-11T18:19:00.947Z,100405.98
2018-06-11T18:21:06.958Z,100395.53
2018-06-11T18:23:12.899Z,100392.94
2018-06-11T18:25:18.814Z,100398.15
2018-06-11T18:27:31.073Z,100395.54
2018-06-11T18:29:47.041Z,100379.04
2018-06-11T18:32:03.762Z,100394.23
2018-06-11T18:34:17.983Z,100394.23
2018-06-11T18:36:25.806Z,100389.87
2018-06-11T18:38:34.316Z,100404.16
2018-06-11T18:40:46.139Z,100364.16
2018-06-11T18:43:04.211Z,100382.89
2018-06-11T18:45:17.884Z,100401.17
2018-06-11T18:47:37.095Z,100389.41
2018-06-11T18:49:55.853Z,100395.09
2018-06-11T18:52:10.283Z,100398.06
2018-06-11T18:54:31.180Z,100398.06
2018-06-11T18:56:37.517Z,100401.98
2018-06-11T18:58:43.415Z,100406.70
2018-06-11T19:00:52.612Z,100405.88
2018-06-11T19:03:00.920Z,100411.91
2018-06-11T19:05:10.499Z,100410.17
2018-06-11T19:07:27.978Z,100374.89
2018-06-11T19:09:44.340Z,100409.27
2018-06-11T19:11:54.458Z,100413.61
2018-06-11T19:14:10.528Z,100419.70
2018-06-11T19:16:18.578Z,100420.98
2018-06-11T19:18:25.213Z,100389.68
2018-06-11T19:20:30.775Z,100427.41
2018-06-11T19:22:36.537Z,100434.29
2018-06-11T19:24:43.415Z,100405.61
2018-06-11T19:26:49.858Z,100433.51
2018-06-11T19:28:55.686Z,100436.11
2018-06-11T19:31:08.569Z,100436.94
2018-06-11T19:33:14.463Z,100440.88
2018-06-11T19:35:19.865Z,100447.41
2018-06-11T19:37:25.826Z,100397.34
2018-06-11T19:39:31.528Z,100435.12
2018-06-11T19:41:37.222Z,100451.64
2018-06-11T19:43:46.975Z,100452.56
2018-06-11T19:45:53.466Z,100445.09
2018-06-11T19:47:59.897Z,100458.99
2018-06-11T19:50:07.095Z,100466.34
2018-06-11T19:52:13.733Z,100464.62
2018-06-11T19:54:26.477Z,100459.81
2018-06-11T19:56:35.611Z,100463.72
2018-06-11T19:58:41.465Z,100400.73
2018-06-11T20:00:48.315Z,100462.52
2018-06-11T20:02:53.521Z,100464.27
2018-06-11T20:04:58.923Z,100463.78
2018-06-11T20:07:05.562Z,100466.81
2018-06-11T20:09:11.144Z,100465.52
2018-06-11T20:11:20.339Z,100470.69
2018-06-11T20:13:26.310Z,100468.47
2018-06-11T20:15:32.513Z,100468.88
2018-06-11T20:17:37.769Z,100469.28
2018-06-11T20:19:44.468Z,100466.66
2018-06-11T20:21:51.011Z,100464.11
2018-06-11T20:23:59.316Z,100397.06
2018-06-11T20:26:05.817Z,100467.55
2018-06-11T20:28:12.497Z,100471.88
2018-06-11T20:30:18.214Z,100466.23
2018-06-11T20:32:24.420Z,100462.32
2018-06-11T20:34:30.687Z,100462.36
2018-06-11T20:36:39.740Z,100413.52
2018-06-11T20:38:48.161Z,100471.02
2018-06-11T20:40:53.636Z,100467.49
2018-06-11T20:42:59.188Z,100460.53
2018-06-11T20:45:05.016Z,100466.61
2018-06-11T20:47:10.727Z,100441.67
2018-06-11T20:49:15.975Z,100444.73
2018-06-11T20:51:21.504Z,100464.88
2018-06-11T20:53:27.075Z,100467.78
2018-06-11T20:55:32.148Z,100466.48
2018-06-11T20:57:37.900Z,100462.17
2018-06-11T20:59:43.343Z,100452.19
2018-06-11T21:01:54.460Z,100460.41
2018-06-11T21:04:00.450Z,100459.12
2018-06-11T21:06:06.134Z,100456.95
2018-06-11T21:08:12.361Z,100459.12
2018-06-11T21:10:19.033Z,100453.02
2018-06-11T21:12:24.194Z,100454.60
2018-06-11T21:14:29.646Z,100462.92
2018-06-11T21:16:36.992Z,100451.98
2018-06-11T21:18:42.314Z,100456.75
2018-06-11T21:20:47.982Z,100451.56
2018-06-11T21:22:53.129Z,100454.13
2018-06-11T21:24:59.962Z,100449.34
2018-06-11T21:27:05.254Z,100451.88
2018-06-11T21:29:11.692Z,100437.58
2018-06-11T21:31:16.917Z,100452.83
2018-06-11T21:33:22.393Z,100448.91
2018-06-11T21:35:27.844Z,100426.70
2018-06-11T21:37:33.167Z,100450.64
2018-06-11T21:39:37.932Z,100397.48
2018-06-11T21:41:43.352Z,100456.59
2018-06-11T21:43:48.531Z,100456.94
2018-06-11T21:45:54.002Z,100439.52
2018-06-11T21:47:59.085Z,100458.17
2018-06-11T21:50:05.435Z,100464.69
2018-06-11T21:52:11.411Z,100461.61
2018-06-11T21:54:16.748Z,100459.37
2018-06-11T21:56:21.928Z,100465.80
2018-06-11T21:58:27.374Z,100460.73
2018-06-11T22:00:32.202Z,100462.36
2018-06-11T22:02:37.198Z,100455.11
2018-06-11T22:04:42.565Z,100449.11
2018-06-11T22:06:47.787Z,100413.73
2018-06-11T22:08:52.797Z,100452.72
2018-06-11T22:10:58.337Z,100454.56
2018-06-11T22:13:03.625Z,100454.53
2018-06-11T22:15:08.749Z,100428.31
2018-06-11T22:17:14.001Z,100460.01
2018-06-11T22:19:19.221Z,100466.55
2018-06-11T22:21:25.420Z,100415.61
2018-06-11T22:23:34.667Z,100442.16
2018-06-11T22:25:41.667Z,100468.17
2018-06-11T22:27:46.897Z,100444.65
2018-06-11T22:29:51.935Z,100462.85
2018-06-11T22:31:57.731Z,100450.63
2018-06-11T22:34:04.540Z,100473.61
2018-06-11T22:36:10.627Z,100462.20
2018-06-11T22:38:17.562Z,100479.24
2018-06-11T22:40:26.147Z,100481.91
2018-06-11T22:42:34.567Z,100475.41
2018-06-11T22:44:40.774Z,100437.46
2018-06-11T22:46:48.989Z,100475.47
2018-06-11T22:48:56.080Z,100483.20
2018-06-11T22:51:02.203Z,100473.64
2018-06-11T22:53:10.122Z,100476.68
2018-06-11T22:55:16.371Z,100460.08
2018-06-11T22:57:22.101Z,100482.09
2018-06-11T22:59:28.760Z,100480.39
2018-06-11T23:01:35.308Z,100453.01
2018-06-11T23:03:42.038Z,100485.00
2018-06-11T23:05:49.775Z,100494.41
2018-06-11T23:07:55.630Z,100485.45
2018-06-11T23:10:00.881Z,100480.58
2018-06-11T23:12:05.829Z,100478.39
2018-06-11T23:14:21.462Z,100471.00
2018-06-11T23:16:28.067Z,100467.89
2018-06-11T23:18:33.059Z,100451.63
2018-06-11T23:20:42.377Z,100456.27
2018-06-11T23:22:47.934Z,100469.16
2018-06-11T23:24:53.880Z,100469.86
2018-06-11T23:26:59.586Z,100455.02
2018-06-11T23:29:04.514Z,100460.83
2018-06-11T23:31:10.145Z,100472.06
2018-06-11T23:33:16.623Z,100425.52
2018-06-11T23:35:23.136Z,100469.84
2018-06-11T23:37:29.241Z,100470.78
2018-06-11T23:39:35.856Z,100457.76
2018-06-11T23:41:44.556Z,100470.09
2018-06-11T23:43:51.262Z,100453.17
2018-06-11T23:45:57.448Z,100472.11
2018-06-11T23:48:04.331Z,100473.12
2018-06-11T23:50:09.840Z,100431.60
2018-06-11T23:52:16.882Z,100477.27
2018-06-11T23:54:21.735Z,100474.11
2018-06-11T23:56:26.528Z,100481.70